LFRU/MXN METAR and TAF weather

Enter ICAO airport designator
Station Type Date Time Source
LFRU METAR 2020/01/20 18:00 UTC NOAA

LFRU 201800Z AUTO 06007KT CAVOK 07/04 Q1045


Station Type Date Time Source
LFRU Decoded METAR 2020/01/20 18:00 UTC NOAA

Morlaix / Ploujean, France (LFRU) 48-36N 003-49W
Jan 20, 2020 - 01:00 PM EST / 2020.01.20 1800 UTC
Wind: from the ENE (060 degrees) at 8 MPH (7 KT):0
Visibility: greater than 7 mile(s):0
Temperature: 44 F (7 C)
Dew Point: 39 F (4 C)
Relative Humidity: 81%
Pressure (altimeter): 30.86 in. Hg (1045 hPa)
ob: LFRU 201800Z AUTO 06007KT CAVOK 07/04 Q1045
cycle: 18

Station Type Date Time Source
LFRU TAF UTC NOAA

Error!

Example: see airport list